Time;durP1;ratioP1;P1;durP2;ratioP2;P2;SDS_P1;SDS_P2;PMS_P1;PMS_P2;Temp;Humidity;BMP_temperature;BMP_pressure;BME280_temperature;BME280_humidity;BME280_pressure;Samples;Min_cycle;Max_cycle;Signal;HPM_P1;HPM_P2
2023/11/09 00:00:26;;;;;;;0.60;0.60;;;5.80;99.90;;;;;;4979556;28;20438;-80
2023/11/09 00:02:54;;;;;;;1.43;0.73;;;5.80;99.90;;;;;;4980769;28;20537;-80
2023/11/09 00:05:21;;;;;;;2.00;0.70;;;5.80;99.90;;;;;;4980494;28;20837;-80
2023/11/09 00:07:48;;;;;;;0.57;0.57;;;5.80;99.90;;;;;;4980679;28;20496;-79
2023/11/09 00:10:15;;;;;;;0.97;0.67;;;5.80;99.90;;;;;;4979178;28;20445;-80
2023/11/09 00:12:43;;;;;;;0.90;0.60;;;5.90;99.90;;;;;;4978603;28;20446;-80
2023/11/09 00:15:10;;;;;;;0.97;0.80;;;5.80;99.90;;;;;;4978241;28;20986;-80
2023/11/09 00:17:37;;;;;;;0.40;0.33;;;5.90;99.90;;;;;;4978596;28;20841;-80
2023/11/09 00:20:06;;;;;;;0.40;0.40;;;5.90;99.90;;;;;;4979346;28;20532;-80
2023/11/09 00:22:34;;;;;;;0.80;0.60;;;5.90;99.90;;;;;;4981377;28;20454;-80
2023/11/09 00:25:00;;;;;;;0.73;0.70;;;5.90;99.90;;;;;;4982014;28;20812;-81
2023/11/09 00:27:27;;;;;;;0.53;0.53;;;6.00;99.90;;;;;;4979410;28;20568;-80
2023/11/09 00:29:55;;;;;;;1.13;0.87;;;6.00;99.90;;;;;;4978879;28;20200;-80
2023/11/09 00:32:22;;;;;;;0.80;0.50;;;6.00;99.90;;;;;;4979006;28;20480;-80
2023/11/09 00:34:49;;;;;;;1.37;0.50;;;6.00;99.90;;;;;;4978243;28;20478;-80
2023/11/09 00:37:16;;;;;;;0.40;0.37;;;6.00;99.90;;;;;;4978766;28;20818;-80
2023/11/09 00:39:43;;;;;;;1.97;1.03;;;6.00;99.90;;;;;;4978329;28;20540;-80
2023/11/09 00:42:09;;;;;;;1.20;0.50;;;6.00;99.90;;;;;;4978423;28;20492;-80
2023/11/09 00:44:36;;;;;;;0.50;0.50;;;6.00;99.90;;;;;;4977945;28;20454;-80
2023/11/09 00:47:05;;;;;;;0.67;0.67;;;6.00;99.90;;;;;;4978254;28;20477;-80
2023/11/09 00:49:32;;;;;;;0.90;0.90;;;6.00;99.90;;;;;;4977974;28;20461;-80
2023/11/09 00:51:58;;;;;;;0.40;0.40;;;6.00;99.90;;;;;;4978388;28;20450;-80
2023/11/09 00:54:26;;;;;;;1.33;0.77;;;6.00;99.90;;;;;;4978328;28;20480;-80
2023/11/09 00:56:53;;;;;;;1.70;0.90;;;6.00;99.90;;;;;;4978225;28;20457;-80
2023/11/09 00:59:20;;;;;;;1.13;0.70;;;6.00;99.90;;;;;;4977266;28;20449;-80
2023/11/09 01:01:46;;;;;;;0.60;0.40;;;6.00;99.90;;;;;;4977557;28;20456;-80
2023/11/09 01:04:14;;;;;;;0.93;0.83;;;6.00;99.90;;;;;;4978349;28;20469;-81
2023/11/09 01:06:41;;;;;;;0.83;0.60;;;6.10;99.90;;;;;;4978043;28;20483;-80
2023/11/09 01:09:08;;;;;;;1.03;0.90;;;6.00;99.90;;;;;;4977943;28;20450;-80
2023/11/09 01:11:35;;;;;;;0.40;0.40;;;6.00;99.90;;;;;;4977722;28;20965;-81
2023/11/09 01:14:02;;;;;;;0.60;0.43;;;6.00;99.90;;;;;;4983882;28;20476;-80
2023/11/09 01:16:28;;;;;;;0.60;0.57;;;6.10;99.90;;;;;;4975641;28;20807;-80
2023/11/09 01:18:55;;;;;;;0.40;0.40;;;6.00;99.90;;;;;;4975654;28;20445;-80
2023/11/09 01:21:23;;;;;;;0.70;0.50;;;6.00;99.90;;;;;;4975455;28;20471;-80
2023/11/09 01:23:50;;;;;;;3.27;0.80;;;6.00;99.90;;;;;;4975665;28;20465;-80
2023/11/09 01:26:16;;;;;;;0.90;0.50;;;6.00;99.90;;;;;;4975332;28;20443;-80
2023/11/09 01:28:43;;;;;;;0.50;0.50;;;6.00;99.90;;;;;;4975747;28;20452;-80
2023/11/09 01:31:10;;;;;;;1.43;0.70;;;6.00;99.90;;;;;;4975799;28;20456;-80
2023/11/09 01:33:37;;;;;;;0.63;0.63;;;5.90;99.90;;;;;;4975621;28;20489;-80
2023/11/09 01:36:04;;;;;;;0.80;0.63;;;6.00;99.90;;;;;;4976046;28;20453;-80
2023/11/09 01:38:34;;;;;;;5.40;0.87;;;6.00;99.90;;;;;;4976241;28;20481;-80
2023/11/09 01:41:05;;;;;;;0.57;0.50;;;6.00;99.90;;;;;;4975364;28;20444;-80
2023/11/09 01:43:33;;;;;;;2.07;1.00;;;6.00;99.90;;;;;;4976085;28;20483;-80
2023/11/09 01:46:00;;;;;;;1.10;0.97;;;6.00;99.90;;;;;;4976095;28;20457;-80
2023/11/09 01:48:27;;;;;;;0.70;0.60;;;6.00;99.90;;;;;;4978342;28;20852;-80
2023/11/09 01:50:54;;;;;;;0.97;0.60;;;6.00;99.90;;;;;;4980272;28;20455;-80
2023/11/09 01:53:21;;;;;;;2.00;0.90;;;6.00;99.90;;;;;;4977291;28;20818;-80
2023/11/09 01:55:50;;;;;;;0.30;0.30;;;6.00;99.90;;;;;;4979096;28;21017;-80
2023/11/09 01:58:17;;;;;;;0.57;0.57;;;6.00;99.90;;;;;;4979297;28;20445;-80
2023/11/09 02:00:46;;;;;;;1.97;0.73;;;6.00;99.90;;;;;;4977189;28;20968;-80
2023/11/09 02:03:14;;;;;;;0.83;0.60;;;6.00;99.90;;;;;;4977653;28;20986;-80
2023/11/09 02:05:43;;;;;;;0.40;0.40;;;6.00;99.90;;;;;;4977587;28;20453;-80
2023/11/09 02:08:09;;;;;;;1.70;0.63;;;6.00;99.90;;;;;;4978285;28;20568;-80
2023/11/09 02:10:35;;;;;;;1.20;0.63;;;5.90;99.90;;;;;;4978117;28;20480;-80
2023/11/09 02:13:04;;;;;;;1.93;0.60;;;6.00;99.90;;;;;;4981505;28;20216;-79
2023/11/09 02:15:31;;;;;;;0.90;0.53;;;6.00;99.90;;;;;;4982293;28;20504;-80
2023/11/09 02:17:58;;;;;;;1.23;1.07;;;5.90;99.90;;;;;;4981500;28;20449;-80
2023/11/09 02:20:25;;;;;;;0.57;0.57;;;6.00;99.90;;;;;;4982546;28;20449;-81
2023/11/09 02:22:53;;;;;;;0.40;0.33;;;6.00;99.90;;;;;;4981827;28;20552;-80
2023/11/09 02:25:22;;;;;;;0.40;0.40;;;6.00;99.90;;;;;;4982192;28;20504;-80
2023/11/09 02:27:49;;;;;;;0.30;0.30;;;6.00;99.90;;;;;;4981897;28;20512;-79
2023/11/09 02:30:16;;;;;;;0.73;0.73;;;6.00;99.90;;;;;;4981805;28;20448;-80
2023/11/09 02:32:42;;;;;;;0.87;0.83;;;6.00;99.90;;;;;;4981746;28;20447;-81
2023/11/09 02:35:09;;;;;;;0.83;0.30;;;6.10;99.90;;;;;;4981040;28;20485;-80
2023/11/09 02:37:36;;;;;;;1.47;0.87;;;6.10;99.90;;;;;;4980482;28;20456;-80
2023/11/09 02:40:04;;;;;;;0.97;0.63;;;6.10;99.90;;;;;;4980196;28;20457;-80
2023/11/09 02:42:32;;;;;;;1.43;0.63;;;6.10;99.90;;;;;;4980165;28;20492;-80
2023/11/09 02:44:59;;;;;;;0.60;0.60;;;6.10;99.90;;;;;;4980367;28;20480;-80
2023/11/09 02:47:26;;;;;;;0.50;0.50;;;6.10;99.90;;;;;;4980450;28;20485;-80
2023/11/09 02:49:52;;;;;;;0.50;0.40;;;6.10;99.90;;;;;;4980213;28;20448;-80
2023/11/09 02:52:19;;;;;;;3.23;0.90;;;6.10;99.90;;;;;;4980552;28;20449;-80
2023/11/09 02:54:46;;;;;;;0.60;0.60;;;6.10;99.90;;;;;;4980443;28;20512;-80
2023/11/09 02:57:13;;;;;;;0.63;0.60;;;6.10;99.90;;;;;;4980287;28;20445;-80
2023/11/09 02:59:43;;;;;;;1.37;1.27;;;6.10;99.90;;;;;;4981176;28;20449;-80
2023/11/09 03:02:10;;;;;;;0.50;0.50;;;6.10;99.90;;;;;;4980839;28;20516;-80
2023/11/09 03:04:38;;;;;;;1.17;1.00;;;6.10;99.90;;;;;;4980678;28;20465;-79
2023/11/09 03:07:07;;;;;;;1.40;1.40;;;6.10;99.90;;;;;;4979852;28;20986;-79
2023/11/09 03:09:34;;;;;;;1.90;0.63;;;6.10;99.90;;;;;;4980244;28;21034;-79
2023/11/09 03:12:01;;;;;;;0.50;0.50;;;6.10;99.90;;;;;;4979493;28;20630;-80
2023/11/09 03:14:29;;;;;;;0.80;0.63;;;6.10;99.90;;;;;;4980007;28;20464;-80
2023/11/09 03:16:59;;;;;;;0.50;0.50;;;6.10;99.90;;;;;;4979795;28;20453;-80
2023/11/09 03:19:25;;;;;;;0.87;0.87;;;6.00;99.90;;;;;;4979607;28;20516;-80
2023/11/09 03:21:52;;;;;;;0.50;0.50;;;6.00;99.90;;;;;;4978971;28;20468;-80
2023/11/09 03:24:19;;;;;;;2.77;0.70;;;6.00;99.90;;;;;;4984367;28;20469;-77
2023/11/09 03:26:46;;;;;;;0.70;0.70;;;6.00;99.90;;;;;;4979106;28;20949;-80
2023/11/09 03:29:13;;;;;;;0.80;0.80;;;6.00;99.90;;;;;;4976867;28;20532;-80
2023/11/09 03:31:40;;;;;;;0.70;0.60;;;6.00;99.90;;;;;;4977774;28;20446;-80
2023/11/09 03:36:42;;;;;;;0.63;0.50;;;6.00;99.90;;;;;;4956576;29;21085;-81
2023/11/09 03:39:09;;;;;;;0.73;0.73;;;6.00;99.90;;;;;;4957919;29;20450;-81
2023/11/09 03:41:36;;;;;;;1.30;1.03;;;6.00;99.90;;;;;;4957988;29;20458;-79
2023/11/09 03:44:03;;;;;;;0.90;0.77;;;6.00;99.90;;;;;;4957988;29;20450;-79
2023/11/09 03:46:29;;;;;;;2.43;0.53;;;6.00;99.90;;;;;;4958086;29;20464;-79
2023/11/09 03:48:56;;;;;;;0.70;0.57;;;5.90;99.90;;;;;;4957790;29;20486;-79
2023/11/09 03:51:24;;;;;;;3.90;1.13;;;;;;;;;;4957480;29;20870;-79
2023/11/09 03:56:27;;;;;;;0.97;0.40;;;5.90;99.90;;;;;;4936625;29;20976;-80
2023/11/09 03:58:54;;;;;;;1.13;0.67;;;;;;;;;;4938275;29;20462;-80
2023/11/09 04:01:21;;;;;;;1.90;0.63;;;;;;;;;;4938475;29;20451;-79
2023/11/09 04:03:48;;;;;;;0.93;0.90;;;;;;;;;;4939439;29;20447;-79
2023/11/09 04:06:18;;;;;;;1.90;0.80;;;6.00;99.90;;;;;;4919332;29;20440;-81
2023/11/09 04:08:46;;;;;;;0.40;0.37;;;6.00;99.90;;;;;;4919537;29;20487;-79
2023/11/09 04:11:13;;;;;;;1.73;0.73;;;;;;;;;;4919214;29;20452;-79
2023/11/09 04:13:41;;;;;;;1.07;0.80;;;6.10;99.90;;;;;;4919461;29;20501;-81
2023/11/09 04:16:09;;;;;;;1.73;0.70;;;8.40;99.90;;;;;;4977298;23;20497;-79
2023/11/09 04:18:38;;;;;;;0.70;0.70;;;;;;;;;;4977020;28;20448;-80
2023/11/09 04:21:09;;;;;;;1.00;0.80;;;6.10;99.90;;;;;;4976683;28;20441;-80
2023/11/09 04:23:36;;;;;;;0.73;0.40;;;6.10;99.90;;;;;;4977629;28;20430;-80
2023/11/09 04:26:04;;;;;;;0.43;0.40;;;6.10;99.90;;;;;;4993458;23;20489;-80
2023/11/09 04:28:33;;;;;;;1.20;0.80;;;;;;;;;;4976576;28;20493;-80
2023/11/09 04:31:01;;;;;;;0.97;0.53;;;6.10;99.90;;;;;;4976610;28;20513;-79
2023/11/09 04:33:28;;;;;;;0.63;0.33;;;7.30;99.90;;;;;;4977407;28;20458;-79
2023/11/09 04:35:55;;;;;;;1.60;0.70;;;6.00;99.90;;;;;;4976602;28;20479;-79
2023/11/09 04:38:23;;;;;;;1.23;0.90;;;6.00;99.90;;;;;;4976497;28;20477;-80
2023/11/09 04:40:55;;;;;;;0.80;0.67;;;6.00;99.90;;;;;;4976472;28;20457;-79
2023/11/09 04:43:22;;;;;;;0.73;0.73;;;6.70;99.90;;;;;;4976209;28;20441;-80
2023/11/09 04:48:20;;;;;;;0.90;0.70;;;6.00;99.90;;;;;;4936424;29;20950;-79
2023/11/09 04:50:52;;;;;;;1.07;0.57;;;6.10;99.90;;;;;;4938032;29;20435;-79
2023/11/09 04:53:30;;;;;;;2.40;0.97;;;6.10;99.90;;;;;;4937923;29;20428;-79
2023/11/09 04:56:03;;;;;;;0.87;0.60;;;6.10;99.90;;;;;;4937617;29;20499;-79
2023/11/09 04:58:44;;;;;;;1.13;0.80;;;6.10;99.90;;;;;;4938319;29;20432;-79
2023/11/09 05:09:15;;;;;;;2.00;1.00;;;6.10;99.90;;;;;;4938229;29;20467;-80
2023/11/09 05:11:42;;;;;;;1.30;1.30;;;6.10;99.90;;;;;;4937722;29;20832;-80
2023/11/09 05:14:09;;;;;;;0.77;0.77;;;6.10;99.90;;;;;;4937594;29;20452;-80
2023/11/09 05:16:38;;;;;;;0.80;0.80;;;6.10;99.90;;;;;;4937502;29;20440;-79
2023/11/09 05:19:04;;;;;;;1.77;0.50;;;6.10;99.90;;;;;;4937299;29;20864;-79
2023/11/09 05:21:32;;;;;;;1.43;0.63;;;6.10;99.90;;;;;;4937256;29;20829;-79
2023/11/09 05:24:00;;;;;;;2.23;0.80;;;;;;;;;;4937415;29;20475;-79
2023/11/09 05:26:27;;;;;;;0.60;0.60;;;6.10;99.90;;;;;;4937011;29;20504;-80
2023/11/09 05:28:55;;;;;;;0.57;0.57;;;6.20;99.90;;;;;;4937365;29;21024;-80
2023/11/09 05:31:23;;;;;;;1.10;0.90;;;;;;;;;;4937176;29;20462;-81
2023/11/09 05:36:34;;;;;;;1.17;1.07;;;6.10;99.90;;;;;;5153982;27;20546;-80
2023/11/09 05:39:01;;;;;;;1.27;0.60;;;6.10;99.90;;;;;;5155595;27;20442;-80
2023/11/09 05:41:29;;;;;;;0.40;0.40;;;6.70;99.90;;;;;;5155872;27;20482;-80
2023/11/09 05:46:24;;;;;;;2.30;0.70;;;6.20;99.90;;;;;;5110613;28;20836;-81
2023/11/09 05:48:51;;;;;;;1.43;0.77;;;;;;;;;;5111708;28;20803;-81
2023/11/09 05:51:21;;;;;;;2.43;1.07;;;6.30;99.90;;;;;;5111568;28;20919;-81
2023/11/09 05:53:49;;;;;;;2.30;0.80;;;6.30;99.90;;;;;;5112283;28;20450;-81
2023/11/09 05:56:16;;;;;;;4.00;0.60;;;;;;;;;;5091368;28;20484;-80
2023/11/09 05:58:44;;;;;;;2.50;1.07;;;6.40;99.90;;;;;;5091324;28;20444;-80
2023/11/09 06:01:12;;;;;;;0.97;0.80;;;6.40;99.90;;;;;;5090925;28;20944;-80
2023/11/09 06:03:38;;;;;;;2.40;0.60;;;6.40;99.90;;;;;;5091230;28;20444;-80
2023/11/09 06:06:06;;;;;;;0.70;0.70;;;6.40;99.90;;;;;;5958388;22;21650;-79
2023/11/09 06:08:34;;;;;;;1.23;0.73;;;6.40;99.90;;;;;;5111272;28;20430;-80
2023/11/09 06:11:02;;;;;;;0.73;0.60;;;6.40;99.90;;;;;;5111145;28;20806;-80
2023/11/09 06:13:29;;;;;;;0.70;0.70;;;6.40;99.90;;;;;;5111058;28;20444;-80
2023/11/09 06:15:57;;;;;;;0.83;0.83;;;6.40;99.90;;;;;;5111249;28;20498;-80
2023/11/09 06:18:24;;;;;;;0.40;0.40;;;6.40;99.90;;;;;;5111200;28;20451;-80
2023/11/09 06:20:53;;;;;;;3.80;0.80;;;6.40;99.90;;;;;;5111943;28;20444;-80
2023/11/09 06:23:19;;;;;;;0.80;0.37;;;6.40;99.90;;;;;;5112502;28;20447;-80
2023/11/09 06:25:48;;;;;;;0.57;0.57;;;6.40;99.90;;;;;;5546231;22;20490;-80
2023/11/09 06:28:16;;;;;;;0.83;0.50;;;6.40;99.90;;;;;;5131645;28;20447;-80
2023/11/09 06:30:43;;;;;;;4.63;0.70;;;6.40;99.90;;;;;;5131921;28;20438;-80
2023/11/09 06:33:10;;;;;;;0.77;0.70;;;6.40;99.90;;;;;;5131348;28;20965;-80
2023/11/09 06:35:38;;;;;;;0.50;0.50;;;6.40;99.90;;;;;;5131697;28;20474;-80
2023/11/09 06:38:06;;;;;;;1.67;1.50;;;6.30;99.90;;;;;;5131886;28;20848;-80
2023/11/09 06:40:34;;;;;;;0.53;0.50;;;6.40;99.90;;;;;;5131358;28;20439;-80
2023/11/09 06:43:00;;;;;;;0.67;0.43;;;6.50;99.90;;;;;;5131108;28;20532;-80
2023/11/09 06:45:29;;;;;;;1.33;0.60;;;6.50;99.90;;;;;;5132226;28;21020;-80
2023/11/09 06:47:56;;;;;;;0.73;0.50;;;6.50;99.90;;;;;;5117847;28;20499;-80
2023/11/09 06:50:23;;;;;;;0.70;0.70;;;6.50;99.90;;;;;;5118122;28;20450;-80
2023/11/09 06:52:52;;;;;;;1.03;0.40;;;6.60;99.90;;;;;;5117871;28;20447;-80
2023/11/09 06:55:20;;;;;;;1.97;0.80;;;6.60;99.90;;;;;;5117330;28;20599;-80
2023/11/09 06:57:47;;;;;;;0.70;0.60;;;6.70;99.90;;;;;;5117583;28;20439;-80
2023/11/09 07:00:15;;;;;;;1.10;0.60;;;6.70;99.90;;;;;;5117683;28;20443;-80
2023/11/09 07:02:44;;;;;;;0.50;0.47;;;6.80;99.90;;;;;;5117495;28;20465;-80
2023/11/09 07:05:11;;;;;;;1.50;1.00;;;6.80;99.90;;;;;;5117286;28;20492;-80
2023/11/09 07:07:39;;;;;;;0.90;0.70;;;6.80;99.90;;;;;;5117049;28;20435;-80
2023/11/09 07:10:07;;;;;;;0.70;0.60;;;6.80;99.90;;;;;;5117001;28;20469;-80
2023/11/09 07:12:34;;;;;;;0.60;0.60;;;6.90;99.90;;;;;;5116962;28;20447;-80
2023/11/09 07:15:01;;;;;;;0.40;0.40;;;6.80;99.90;;;;;;5116809;28;20497;-80
2023/11/09 07:17:28;;;;;;;2.40;0.63;;;6.80;99.90;;;;;;5120348;28;20451;-80
2023/11/09 07:19:59;;;;;;;0.90;0.80;;;6.90;99.90;;;;;;5117614;28;20496;-80
2023/11/09 07:23:00;;;;;;;2.10;0.93;;;7.10;99.90;;;;;;5117776;28;20428;-80
2023/11/09 07:25:31;;;;;;;1.37;0.60;;;7.10;99.90;;;;;;5117129;28;20480;-81
2023/11/09 07:28:39;;;;;;;0.50;0.40;;;7.10;99.90;;;;;;5117619;28;20438;-80
2023/11/09 07:31:06;;;;;;;0.40;0.40;;;7.20;99.90;;;;;;5118220;28;20902;-80
2023/11/09 07:33:49;;;;;;;0.50;0.50;;;7.30;99.90;;;;;;5117397;28;20445;-80
2023/11/09 07:36:18;;;;;;;0.57;0.57;;;7.30;99.90;;;;;;5120585;28;20493;-80
2023/11/09 07:38:45;;;;;;;0.60;0.60;;;7.20;99.90;;;;;;5121417;28;20496;-80
2023/11/09 07:41:26;;;;;;;0.50;0.50;;;7.10;99.90;;;;;;5123621;28;20453;-80
2023/11/09 07:53:08;;;;;;;0.60;0.37;;;6.90;99.90;;;;;;5008398;28;20443;-80
2023/11/09 08:19:49;;;;;;;0.40;0.40;;;6.90;99.90;;;;;;5016068;28;20432;-81
2023/11/09 08:28:08;;;;;;;0.80;0.77;;;7.20;99.90;;;;;;5019744;28;20439;-81
2023/11/09 08:30:35;;;;;;;0.40;0.40;;;7.40;99.90;;;;;;5044210;28;20454;-81
2023/11/09 08:33:04;;;;;;;0.63;0.63;;;7.30;99.90;;;;;;5056658;28;20454;-80
2023/11/09 08:35:31;;;;;;;0.53;0.53;;;7.40;99.90;;;;;;5056164;28;20488;-81
2023/11/09 08:38:00;;;;;;;0.80;0.40;;;7.40;99.90;;;;;;5056239;28;20460;-80
2023/11/09 08:40:29;;;;;;;0.60;0.60;;;7.60;99.90;;;;;;5056566;28;20468;-81
2023/11/09 08:42:57;;;;;;;1.37;0.60;;;7.60;99.90;;;;;;5055569;28;20515;-81
2023/11/09 08:45:27;;;;;;;1.43;0.80;;;7.70;99.90;;;;;;5055112;28;21018;-80
2023/11/09 08:47:55;;;;;;;2.00;1.17;;;9.20;99.90;;;;;;5055949;28;20449;-80
2023/11/09 08:50:22;;;;;;;1.37;0.60;;;7.80;99.90;;;;;;5056100;28;20946;-81
2023/11/09 08:52:49;;;;;;;1.17;0.83;;;7.90;99.90;;;;;;5056112;28;20533;-80
2023/11/09 08:55:18;;;;;;;1.07;0.77;;;8.10;99.90;;;;;;5057321;28;20488;-81
2023/11/09 08:57:47;;;;;;;1.70;0.90;;;8.40;99.90;;;;;;5056508;28;20438;-80
2023/11/09 09:00:16;;;;;;;2.03;1.00;;;8.80;99.90;;;;;;5057728;28;20442;-81
2023/11/09 09:02:48;;;;;;;0.83;0.53;;;9.30;99.90;;;;;;5057825;28;20446;-81
2023/11/09 09:05:18;;;;;;;0.60;0.50;;;9.80;99.90;;;;;;5058588;28;20478;-81
2023/11/09 09:07:45;;;;;;;1.47;0.90;;;10.00;99.90;;;;;;5057311;28;20544;-81
2023/11/09 09:10:15;;;;;;;1.57;0.87;;;9.90;99.90;;;;;;5057413;28;20495;-82
2023/11/09 09:12:44;;;;;;;1.33;0.40;;;9.90;99.90;;;;;;5057264;28;20454;-81
2023/11/09 09:15:13;;;;;;;0.70;0.70;;;10.10;99.90;;;;;;5058229;28;20511;-82
2023/11/09 09:17:41;;;;;;;1.93;0.70;;;9.90;99.90;;;;;;5057011;28;20445;-81
2023/11/09 09:20:11;;;;;;;2.40;0.60;;;9.70;99.90;;;;;;5057491;28;20450;-82
2023/11/09 09:22:39;;;;;;;1.23;0.77;;;9.50;99.90;;;;;;5058435;28;20922;-81
2023/11/09 09:25:10;;;;;;;0.53;0.47;;;9.30;99.90;;;;;;5057647;28;20496;-80
2023/11/09 09:27:40;;;;;;;0.50;0.40;;;9.30;99.90;;;;;;5057248;28;20430;-80
2023/11/09 09:30:10;;;;;;;0.53;0.50;;;9.20;99.90;;;;;;5057456;28;20507;-79
2023/11/09 09:32:38;;;;;;;3.00;1.63;;;9.20;99.90;;;;;;5057755;28;20453;-79
2023/11/09 09:35:07;;;;;;;0.60;0.57;;;9.20;99.90;;;;;;5057716;28;20810;-79
2023/11/09 09:37:37;;;;;;;0.60;0.60;;;9.30;99.90;;;;;;5057662;28;20541;-79
2023/11/09 09:40:14;;;;;;;0.97;0.60;;;9.30;99.90;;;;;;5058441;28;20783;-79
2023/11/09 09:42:46;;;;;;;5.80;0.60;;;9.30;99.90;;;;;;5110195;22;20498;-80
2023/11/09 09:45:16;;;;;;;0.80;0.40;;;9.40;99.90;;;;;;5093698;28;20435;-80
2023/11/09 09:47:46;;;;;;;0.63;0.60;;;9.40;99.90;;;;;;5093407;28;20944;-79
2023/11/09 09:50:14;;;;;;;0.80;0.60;;;9.30;99.90;;;;;;5093353;28;20965;-79
2023/11/09 09:52:46;;;;;;;4.13;0.50;;;9.20;99.90;;;;;;5093155;28;20464;-79
2023/11/09 09:55:15;;;;;;;0.47;0.47;;;9.20;99.90;;;;;;5093653;28;20840;-80
2023/11/09 09:57:44;;;;;;;0.33;0.33;;;9.30;99.90;;;;;;5093316;28;20468;-79
2023/11/09 10:00:13;;;;;;;0.50;0.50;;;9.30;99.90;;;;;;5093826;28;20446;-79
2023/11/09 10:02:41;;;;;;;0.40;0.40;;;9.30;99.90;;;;;;5106125;28;20464;-79
2023/11/09 10:05:12;;;;;;;0.50;0.50;;;9.40;99.90;;;;;;5099321;28;20447;-79
2023/11/09 10:07:57;;;;;;;0.30;0.30;;;9.60;99.90;;;;;;5093520;28;20435;-79
2023/11/09 10:10:25;;;;;;;0.97;0.63;;;9.80;99.90;;;;;;5093515;28;20443;-80
2023/11/09 10:12:52;;;;;;;0.50;0.30;;;10.00;99.90;;;;;;5092932;28;20513;-79
2023/11/09 10:15:23;;;;;;;0.30;0.30;;;10.10;99.90;;;;;;5093259;28;20440;-80
2023/11/09 10:17:51;;;;;;;0.73;0.50;;;10.10;99.90;;;;;;5093259;28;20412;-80
2023/11/09 10:20:20;;;;;;;0.50;0.47;;;10.20;99.90;;;;;;5092984;28;20432;-79
2023/11/09 10:22:47;;;;;;;4.13;0.50;;;10.20;99.90;;;;;;5095896;28;20850;-80
2023/11/09 10:25:15;;;;;;;0.93;0.40;;;10.20;99.90;;;;;;5096968;28;20439;-80
2023/11/09 10:27:42;;;;;;;0.50;0.40;;;10.10;99.90;;;;;;5096537;28;20935;-80
2023/11/09 10:30:11;;;;;;;0.97;0.37;;;10.10;99.90;;;;;;5096739;28;20436;-79
2023/11/09 10:32:40;;;;;;;0.73;0.40;;;10.10;99.90;;;;;;5096714;28;20496;-80
2023/11/09 10:35:08;;;;;;;0.47;0.30;;;10.20;99.90;;;;;;5096707;28;20448;-79
2023/11/09 10:37:37;;;;;;;1.37;1.00;;;10.30;99.90;;;;;;5096683;28;20506;-77
2023/11/09 10:40:05;;;;;;;0.43;0.43;;;10.40;99.90;;;;;;5096346;28;20944;-78
2023/11/09 10:42:33;;;;;;;1.17;0.30;;;10.50;99.90;;;;;;5096266;28;20483;-77
2023/11/09 10:45:02;;;;;;;0.90;0.50;;;10.60;99.90;;;;;;5096659;28;20452;-79
2023/11/09 10:47:33;;;;;;;0.73;0.40;;;10.60;99.90;;;;;;5096738;28;20497;-77
2023/11/09 10:50:13;;;;;;;0.57;0.33;;;10.70;99.90;;;;;;5096328;28;20908;-77
2023/11/09 10:52:43;;;;;;;0.40;0.30;;;10.80;99.90;;;;;;5096578;28;20463;-77
2023/11/09 10:55:11;;;;;;;0.40;0.40;;;10.80;99.90;;;;;;5096336;28;20932;-77
2023/11/09 10:57:40;;;;;;;0.30;0.30;;;10.80;99.90;;;;;;5096155;28;20507;-77
2023/11/09 11:00:10;;;;;;;0.53;0.53;;;10.90;99.90;;;;;;5096317;28;20448;-78
2023/11/09 11:02:46;;;;;;;0.87;0.50;;;11.10;99.90;;;;;;5096495;28;20464;-77
2023/11/09 11:05:14;;;;;;;0.50;0.50;;;11.20;99.90;;;;;;5096319;28;20924;-78
2023/11/09 11:07:44;;;;;;;0.70;0.40;;;11.40;99.90;;;;;;5096244;28;20493;-78
2023/11/09 11:10:16;;;;;;;0.40;0.40;;;11.40;99.90;;;;;;5098018;28;20769;-79
2023/11/09 11:12:44;;;;;;;0.50;0.50;;;11.40;99.90;;;;;;5096339;28;20555;-79
2023/11/09 11:15:12;;;;;;;0.40;0.30;;;11.40;99.90;;;;;;5098800;28;20535;-78
2023/11/09 11:17:45;;;;;;;0.60;0.40;;;11.40;99.90;;;;;;5095654;28;20475;-77
2023/11/09 11:20:43;;;;;;;0.40;0.30;;;11.40;99.90;;;;;;5097212;28;20432;-82
2023/11/09 11:23:43;;;;;;;0.67;0.50;;;11.20;99.90;;;;;;5096235;28;20448;-79
2023/11/09 11:26:14;;;;;;;1.30;0.57;;;11.20;99.90;;;;;;5096659;28;20424;-79
2023/11/09 11:28:42;;;;;;;0.47;0.47;;;11.20;99.90;;;;;;5096850;28;20531;-78
2023/11/09 11:31:10;;;;;;;0.40;0.30;;;11.30;99.90;;;;;;5095783;28;20440;-79
2023/11/09 11:33:37;;;;;;;0.57;0.40;;;11.20;99.90;;;;;;5095607;28;20448;-78
2023/11/09 11:36:05;;;;;;;0.60;0.50;;;11.40;99.90;;;;;;5095524;28;20539;-78
2023/11/09 11:38:35;;;;;;;0.33;0.33;;;11.40;99.90;;;;;;5095281;28;20487;-79
2023/11/09 11:41:16;;;;;;;0.40;0.40;;;11.50;99.90;;;;;;5095219;28;20428;-79
2023/11/09 11:43:50;;;;;;;1.23;0.30;;;11.50;99.90;;;;;;5095713;28;20440;-79
2023/11/09 11:46:18;;;;;;;3.30;0.60;;;11.40;99.90;;;;;;5095209;28;20919;-79
2023/11/09 11:48:50;;;;;;;0.40;0.30;;;11.40;99.90;;;;;;5097003;28;20429;-79
2023/11/09 11:51:18;;;;;;;0.87;0.30;;;11.40;99.90;;;;;;5095430;28;20487;-79
2023/11/09 11:53:52;;;;;;;0.80;0.40;;;11.40;99.90;;;;;;5095509;28;20444;-79
2023/11/09 11:56:24;;;;;;;0.40;0.30;;;11.40;99.90;;;;;;5095734;28;20472;-78
2023/11/09 11:58:55;;;;;;;0.30;0.30;;;11.40;99.90;;;;;;5095893;28;20421;-79
2023/11/09 12:01:27;;;;;;;0.30;0.30;;;11.50;99.90;;;;;;5095732;28;20464;-79
2023/11/09 12:03:57;;;;;;;0.40;0.33;;;11.60;99.90;;;;;;5095971;28;20493;-79
2023/11/09 12:06:25;;;;;;;0.40;0.30;;;11.60;99.90;;;;;;5095936;28;20555;-79
2023/11/09 12:08:58;;;;;;;0.30;0.30;;;11.80;99.90;;;;;;5095408;28;20444;-80
2023/11/09 12:11:26;;;;;;;0.30;0.30;;;12.00;99.90;;;;;;5107023;27;20523;-79
2023/11/09 12:13:54;;;;;;;0.40;0.40;;;12.00;99.90;;;;;;5102267;27;20425;-78
2023/11/09 12:16:24;;;;;;;0.30;0.30;;;12.10;99.90;;;;;;5094924;28;20505;-79
2023/11/09 12:18:51;;;;;;;0.30;0.27;;;12.10;99.90;;;;;;5095005;28;20459;-79
2023/11/09 12:21:20;;;;;;;0.40;0.40;;;12.00;99.90;;;;;;5094480;28;20460;-79
2023/11/09 12:23:53;;;;;;;0.67;0.33;;;12.00;99.90;;;;;;5094645;28;20487;-79
2023/11/09 12:26:20;;;;;;;0.30;0.30;;;12.00;99.90;;;;;;5094549;28;20442;-80
2023/11/09 12:28:48;;;;;;;0.40;0.40;;;11.90;99.90;;;;;;5094851;28;20436;-79
2023/11/09 12:31:16;;;;;;;0.30;0.30;;;11.90;99.90;;;;;;5094927;28;20984;-79
2023/11/09 12:33:59;;;;;;;0.40;0.30;;;12.00;99.90;;;;;;5094263;28;20448;-79
2023/11/09 12:36:25;;;;;;;0.30;0.30;;;12.00;99.90;;;;;;5094534;28;20463;-78
2023/11/09 12:38:54;;;;;;;0.30;0.30;;;12.00;99.90;;;;;;5094498;28;20495;-80
2023/11/09 12:41:24;;;;;;;0.30;0.30;;;12.00;99.90;;;;;;5094091;28;20479;-79
2023/11/09 12:43:51;;;;;;;0.30;0.30;;;12.10;99.90;;;;;;5094013;28;20532;-79
2023/11/09 12:46:25;;;;;;;0.40;0.30;;;12.10;99.90;;;;;;5094001;28;20538;-80
2023/11/09 12:48:59;;;;;;;0.40;0.30;;;12.00;99.90;;;;;;5096948;28;20428;-79
2023/11/09 12:51:29;;;;;;;0.40;0.30;;;12.00;99.90;;;;;;5095277;28;20467;-80
2023/11/09 12:53:57;;;;;;;0.30;0.30;;;12.00;99.90;;;;;;5094138;28;20424;-79
2023/11/09 12:56:24;;;;;;;0.30;0.20;;;12.10;99.90;;;;;;5093974;28;20428;-79
2023/11/09 12:58:52;;;;;;;0.40;0.30;;;12.10;99.90;;;;;;5094306;28;20451;-79
2023/11/09 13:01:19;;;;;;;0.70;0.30;;;12.10;99.90;;;;;;5094150;28;20586;-79
2023/11/09 13:03:49;;;;;;;0.30;0.20;;;12.20;99.90;;;;;;5094515;28;20444;-78
2023/11/09 13:06:22;;;;;;;0.30;0.30;;;12.10;99.90;;;;;;5093704;28;20940;-78
2023/11/09 13:08:49;;;;;;;0.30;0.30;;;12.10;99.90;;;;;;5093937;28;20471;-78
2023/11/09 13:11:40;;;;;;;0.30;0.30;;;12.10;99.90;;;;;;5093851;28;20468;-79
2023/11/09 13:14:08;;;;;;;2.93;0.30;;;12.10;99.90;;;;;;5093523;28;20443;-79
2023/11/09 13:16:38;;;;;;;0.30;0.20;;;12.00;99.90;;;;;;5093774;28;20434;-78
2023/11/09 13:19:05;;;;;;;0.50;0.30;;;12.00;99.90;;;;;;5094183;28;20443;-78
2023/11/09 13:21:32;;;;;;;0.30;0.30;;;11.90;99.90;;;;;;5094198;28;20464;-78
2023/11/09 13:23:59;;;;;;;0.50;0.30;;;11.80;99.90;;;;;;5093520;28;20940;-79
2023/11/09 13:26:28;;;;;;;0.30;0.30;;;11.80;99.90;;;;;;5094322;28;20452;-79
2023/11/09 13:29:06;;;;;;;0.40;0.30;;;11.80;99.90;;;;;;5093860;28;20932;-76
2023/11/09 13:31:34;;;;;;;0.30;0.30;;;11.80;99.90;;;;;;5093269;28;20464;-77
2023/11/09 13:34:02;;;;;;;0.40;0.30;;;11.80;99.90;;;;;;5093581;28;20444;-77
2023/11/09 13:36:42;;;;;;;0.30;0.30;;;11.80;99.90;;;;;;5093534;28;20447;-77
2023/11/09 13:42:00;;;;;;;0.30;0.30;;;11.70;99.90;;;;;;5093158;28;20490;-77
2023/11/09 13:44:27;;;;;;;0.30;0.30;;;11.60;99.90;;;;;;5093501;28;20523;-77
2023/11/09 13:46:59;;;;;;;1.20;0.30;;;11.50;99.90;;;;;;5093486;28;20481;-77
2023/11/09 13:49:27;;;;;;;0.30;0.20;;;11.60;99.90;;;;;;5093181;28;20916;-77
2023/11/09 13:52:06;;;;;;;0.40;0.30;;;11.50;99.90;;;;;;5093415;28;20464;-77
2023/11/09 13:54:43;;;;;;;0.30;0.30;;;11.40;99.90;;;;;;5093506;28;20523;-77
2023/11/09 13:57:20;;;;;;;0.30;0.30;;;11.30;99.90;;;;;;5095467;28;20832;-77
2023/11/09 13:59:56;;;;;;;0.30;0.30;;;11.30;99.90;;;;;;5097244;28;20463;-77
2023/11/09 14:02:27;;;;;;;13.53;0.40;;;11.30;99.90;;;;;;5097395;28;20463;-76
2023/11/09 14:04:58;;;;;;;0.30;0.27;;;11.20;99.90;;;;;;5097459;28;20471;-78
2023/11/09 14:07:32;;;;;;;0.30;0.20;;;11.30;99.90;;;;;;5097279;28;20905;-77
2023/11/09 14:09:59;;;;;;;0.30;0.30;;;11.20;99.90;;;;;;5097289;28;20477;-78